首页
METAR-TAF:

METAR-TAF

机场 :

伊爾庫茨克, 俄罗斯

伊爾庫茨克國際機場

纬度: 52-16N, 经度: 104-19E, 海拔: 513米

当前天气观测

该预报发布于22分钟前的22:00 UTC
风速10节,风向南转南东
温度 6°C
湿度 65%
气压 1016 hPa
能见度10公里或以上
1500米以下无云,无积雨云

METAR: UIII 252200Z 16005MPS CAVOK 06/00 Q1016 R12/CLRD60 NOSIG RMK QFE720/0960

时间: 06:22 (22:22 UTC)

预报

该预报发布于2小时和22分钟前的20:00 UTC
预报有效从25日的 21点(UTC)到 26日的 21点(UTC)
风速6节,风向南转南东
能见度10公里或以上
1500米以下无云,无积雨云

TAF: UIII 252000Z 2521/2621 16003MPS CAVOK

超过4000个机场的气象观测和天气预报(METAR&TAF报告)。

可查询的气象台以黄色和红色小点在地图上表示。

将鼠标移到小点上方,可查看气象台名称。

然后点击查看天气观测和预报。

如需切换地图:点击带黑十字的绿色按钮放大地图;点击带横线的绿色按钮缩小地图;或者点击绿色箭头查看邻近地区的地图。


METAR-TAF: